1880 NOT_NAMED (1880001S08060)


IBTrACS version v04r00. Visit IBTrACS website for data access.
Please direct all questions to the IBTrACS Q and A forum

Storm track - Intensity - Wind Radii - Intensity Data - Source Data - All data

Summary Information

Storm ID 1880001S08060
Start Jan 1 06Z
End Jan 9 06Z
ATCF IDs
Track status Best track data.

Storm track plot

Map of storm track

Intensity plots

No Intensity information for this storm


Radial wind information

No radial wind information for this storm


Position and Intensity Table

BASIN ISO_TIME_________ NATURE LAT LON
degrees north degrees east
SI 1880-01-01 06:00:00 NR -7.50 59.80
SI 09:00:00 NR -7.64 59.69
SI 12:00:00 NR -7.78 59.57
SI 15:00:00 NR -7.92 59.46
SI 18:00:00 NR -8.06 59.35
SI 21:00:00 NR -8.20 59.23
SI 1880-01-02 00:00:00 NR -8.33 59.12
SI 03:00:00 NR -8.47 59.01
SI 06:00:00 NR -8.60 58.90
SI 09:00:00 NR -8.73 58.79
SI 12:00:00 NR -8.86 58.68
SI 15:00:00 NR -8.98 58.57
SI 18:00:00 NR -9.11 58.46
SI 21:00:00 NR -9.23 58.35
SI 1880-01-03 00:00:00 NR -9.35 58.24
SI 03:00:00 NR -9.48 58.12
SI 06:00:00 NR -9.60 58.00
SI 09:00:00 NR -9.73 57.87
SI 12:00:00 NR -9.85 57.74
SI 15:00:00 NR -9.98 57.60
SI 18:00:00 NR -10.10 57.46
SI 21:00:00 NR -10.23 57.32
SI 1880-01-04 00:00:00 NR -10.35 57.18
SI 03:00:00 NR -10.48 57.04
SI 06:00:00 NR -10.60 56.90
SI 09:00:00 NR -10.73 56.77
SI 12:00:00 NR -10.85 56.64
SI 15:00:00 NR -10.98 56.51
SI 18:00:00 NR -11.11 56.38
SI 21:00:00 NR -11.23 56.26
SI 1880-01-05 00:00:00 NR -11.36 56.14
SI 03:00:00 NR -11.48 56.02
SI 06:00:00 NR -11.60 55.90
SI 09:00:00 NR -11.71 55.79
SI 12:00:00 NR -11.82 55.68
SI 15:00:00 NR -11.93 55.57
SI 18:00:00 NR -12.04 55.46
SI 21:00:00 NR -12.15 55.35
SI 1880-01-06 00:00:00 NR -12.26 55.24
SI 03:00:00 NR -12.38 55.12
SI 06:00:00 NR -12.50 55.00
SI 09:00:00 NR -12.60 54.90
SI 12:00:00 NR -12.71 54.79
SI 15:00:00 NR -12.82 54.69
SI 18:00:00 NR -12.94 54.57
SI 21:00:00 NR -13.08 54.43
SI 1880-01-07 00:00:00 NR -13.23 54.28
SI 03:00:00 NR -13.40 54.11
SI 06:00:00 NR -13.60 53.90
SI 09:00:00 NR -13.86 53.62
SI 12:00:00 NR -14.15 53.31
SI 15:00:00 NR -14.46 52.98
SI 18:00:00 NR -14.77 52.64
SI 21:00:00 NR -15.09 52.30
SI 1880-01-08 00:00:00 NR -15.39 51.97
SI 03:00:00 NR -15.66 51.67
SI 06:00:00 NR -15.90 51.40
SI 09:00:00 NR -16.10 51.18
SI 12:00:00 NR -16.26 51.00
SI 15:00:00 NR -16.38 50.86
SI 18:00:00 NR -16.48 50.75
SI 21:00:00 NR -16.55 50.67
SI 1880-01-09 00:00:00 NR -16.61 50.60
SI 03:00:00 NR -16.66 50.55
SI 06:00:00 NR -16.70 50.50

Source Information

Agency Information
USA
TOKYO
CMA
HKO
NEWDELHI
REUNION WMO-Best-Tracks.txt:Line=1201:xxxx880177
BOM
NADI
WELLINGTON
DS824
TD9636
TD9635
NEUMANN
MLC

All available IBTrACS Data

SEASON BASIN SUBBASIN ISO_TIME_________ NATURE LAT LON WMO AGENCY DIST2LAND LANDFALL IFLAG USA SSHS REUNION LAT REUNION LON REUNION TYPE REUNION TNUM STORM SPEED STORM DIR
Year degrees north degrees east km km 1 degrees north degrees east 1 kts degrees
1880 SI MM 1880-01-01 06:00:00 NR -7.50 59.80 reunion 1246 1231 _____O________ -1 -7.50 59.80 99 9.90 4 219
1880 SI MM 09:00:00 NR -7.64 59.69 1231 1210 _____P________ -1 -7.64 59.69 99 4 219
1880 SI MM 12:00:00 NR -7.78 59.57 1210 1195 _____P________ -1 -7.78 59.57 99 4 219
1880 SI MM 15:00:00 NR -7.92 59.46 1195 1174 _____P________ -1 -7.92 59.46 99 4 219
1880 SI MM 18:00:00 NR -8.06 59.35 1165 1150 _____P________ -1 -8.06 59.35 99 4 219
1880 SI MM 21:00:00 NR -8.20 59.23 1150 1135 _____P________ -1 -8.20 59.23 99 4 219
1880 SI MM 1880-01-02 00:00:00 NR -8.33 59.12 1135 1114 _____P________ -1 -8.33 59.12 99 4 219
1880 SI MM 03:00:00 NR -8.47 59.01 1114 1100 _____P________ -1 -8.47 59.01 99 3 219
1880 SI MM 06:00:00 NR -8.60 58.90 reunion 1100 1085 _____O________ -1 -8.60 58.90 99 9.90 3 220
1880 SI MM 09:00:00 NR -8.73 58.79 1085 1065 _____P________ -1 -8.73 58.79 99 3 220
1880 SI MM 12:00:00 NR -8.86 58.68 1065 1050 _____P________ -1 -8.86 58.68 99 3 220
1880 SI MM 15:00:00 NR -8.98 58.57 1050 1035 _____P________ -1 -8.98 58.57 99 3 221
1880 SI MM 18:00:00 NR -9.11 58.46 1035 1020 _____P________ -1 -9.11 58.46 99 3 221
1880 SI MM 21:00:00 NR -9.23 58.35 1020 996 _____P________ -1 -9.23 58.35 99 3 222
1880 SI MM 1880-01-03 00:00:00 NR -9.35 58.24 991 976 _____P________ -1 -9.35 58.24 99 3 223
1880 SI MM 03:00:00 NR -9.48 58.12 976 962 _____P________ -1 -9.48 58.12 99 3 224
1880 SI MM 06:00:00 NR -9.60 58.00 reunion 962 947 _____O________ -1 -9.60 58.00 99 9.90 4 225
1880 SI MM 09:00:00 NR -9.73 57.87 947 923 _____P________ -1 -9.73 57.87 99 4 226
1880 SI MM 12:00:00 NR -9.85 57.74 918 904 _____P________ -1 -9.85 57.74 99 4 227
1880 SI MM 15:00:00 NR -9.98 57.60 904 889 _____P________ -1 -9.98 57.60 99 4 228
1880 SI MM 18:00:00 NR -10.10 57.46 889 865 _____P________ -1 -10.10 57.46 99 4 228
1880 SI MM 21:00:00 NR -10.23 57.32 865 850 _____P________ -1 -10.23 57.32 99 4 228
1880 SI MM 1880-01-04 00:00:00 NR -10.35 57.18 846 822 _____P________ -1 -10.35 57.18 99 4 228
1880 SI MM 03:00:00 NR -10.48 57.04 822 808 _____P________ -1 -10.48 57.04 99 4 227
1880 SI MM 06:00:00 NR -10.60 56.90 reunion 808 794 _____O________ -1 -10.60 56.90 99 9.90 4 226
1880 SI MM 09:00:00 NR -10.73 56.77 794 769 _____P________ -1 -10.73 56.77 99 4 225
1880 SI MM 12:00:00 NR -10.85 56.64 766 752 _____P________ -1 -10.85 56.64 99 4 225
1880 SI MM 15:00:00 NR -10.98 56.51 752 738 _____P________ -1 -10.98 56.51 99 4 225
1880 SI MM 18:00:00 NR -11.11 56.38 738 724 _____P________ -1 -11.11 56.38 99 4 224
1880 SI MM 21:00:00 NR -11.23 56.26 724 697 _____P________ -1 -11.23 56.26 99 3 224
1880 SI MM 1880-01-05 00:00:00 NR -11.36 56.14 697 684 _____P________ -1 -11.36 56.14 99 3 224
1880 SI MM 03:00:00 NR -11.48 56.02 684 670 _____P________ -1 -11.48 56.02 99 3 224
1880 SI MM 06:00:00 NR -11.60 55.90 reunion 670 657 _____O________ -1 -11.60 55.90 99 9.90 3 224
1880 SI MM 09:00:00 NR -11.71 55.79 657 644 _____P________ -1 -11.71 55.79 99 3 225
1880 SI MM 12:00:00 NR -11.82 55.68 644 630 _____P________ -1 -11.82 55.68 99 3 225
1880 SI MM 15:00:00 NR -11.93 55.57 630 617 _____P________ -1 -11.93 55.57 99 3 224
1880 SI MM 18:00:00 NR -12.04 55.46 617 603 _____P________ -1 -12.04 55.46 99 3 224
1880 SI MM 21:00:00 NR -12.15 55.35 590 577 _____P________ -1 -12.15 55.35 99 3 224
1880 SI MM 1880-01-06 00:00:00 NR -12.26 55.24 577 564 _____P________ -1 -12.26 55.24 99 3 224
1880 SI MM 03:00:00 NR -12.38 55.12 564 550 _____P________ -1 -12.38 55.12 99 3 224
1880 SI MM 06:00:00 NR -12.50 55.00 reunion 550 537 _____O________ -1 -12.50 55.00 99 9.90 3 224
1880 SI MM 09:00:00 NR -12.60 54.90 537 523 _____P________ -1 -12.60 54.90 99 3 224
1880 SI MM 12:00:00 NR -12.71 54.79 523 510 _____P________ -1 -12.71 54.79 99 3 223
1880 SI MM 15:00:00 NR -12.82 54.69 510 497 _____P________ -1 -12.82 54.69 99 3 224
1880 SI MM 18:00:00 NR -12.94 54.57 497 471 _____P________ -1 -12.94 54.57 99 4 224
1880 SI MM 21:00:00 NR -13.08 54.43 471 459 _____P________ -1 -13.08 54.43 99 4 224
1880 SI MM 1880-01-07 00:00:00 NR -13.23 54.28 459 434 _____P________ -1 -13.23 54.28 99 5 225
1880 SI MM 03:00:00 NR -13.40 54.11 434 407 _____P________ -1 -13.40 54.11 99 5 225
1880 SI MM 06:00:00 NR -13.60 53.90 reunion 407 368 _____O________ -1 -13.60 53.90 99 9.90 7 226
1880 SI MM 09:00:00 NR -13.86 53.62 364 325 _____P________ -1 -13.86 53.62 99 8 226
1880 SI MM 12:00:00 NR -14.15 53.31 321 283 _____P________ -1 -14.15 53.31 99 9 226
1880 SI MM 15:00:00 NR -14.46 52.98 280 240 _____P________ -1 -14.46 52.98 99 9 226
1880 SI MM 18:00:00 NR -14.77 52.64 230 193 _____P________ -1 -14.77 52.64 99 9 226
1880 SI MM 21:00:00 NR -15.09 52.30 193 160 _____P________ -1 -15.09 52.30 99 9 227
1880 SI MM 1880-01-08 00:00:00 NR -15.39 51.97 160 130 _____P________ -1 -15.39 51.97 99 8 227
1880 SI MM 03:00:00 NR -15.66 51.67 132 111 _____P________ -1 -15.66 51.67 99 8 227
1880 SI MM 06:00:00 NR -15.90 51.40 reunion 111 96 _____O________ -1 -15.90 51.40 99 9.90 6 227
1880 SI MM 09:00:00 NR -16.10 51.18 101 87 _____P________ -1 -16.10 51.18 99 5 227
1880 SI MM 12:00:00 NR -16.26 51.00 91 81 _____P________ -1 -16.26 51.00 99 4 227
1880 SI MM 15:00:00 NR -16.38 50.86 87 78 _____P________ -1 -16.38 50.86 99 3 227
1880 SI MM 18:00:00 NR -16.48 50.75 85 77 _____P________ -1 -16.48 50.75 99 3 227
1880 SI MM 21:00:00 NR -16.55 50.67 85 79 _____P________ -1 -16.55 50.67 99 2 227
1880 SI MM 1880-01-09 00:00:00 NR -16.61 50.60 79 79 _____P________ -1 -16.61 50.60 99 2 227
1880 SI MM 03:00:00 NR -16.66 50.55 75 75 _____P________ -1 -16.66 50.55 99 1 227
1880 SI MM 06:00:00 NR -16.70 50.50 reunion 75 _____O________ -1 -16.70 50.50 99 9.90 1 222